createdAt,value
2018-02-09T00:01:01.780Z,10.87
2018-02-09T00:03:30.343Z,7.87
2018-02-09T00:05:58.845Z,7.13
2018-02-09T00:08:26.578Z,9.83
2018-02-09T00:10:54.309Z,9.00
2018-02-09T00:13:22.054Z,13.10
2018-02-09T00:15:50.561Z,13.20
2018-02-09T00:18:18.304Z,10.90
2018-02-09T00:20:46.124Z,12.83
2018-02-09T00:23:14.662Z,12.03
2018-02-09T00:25:43.167Z,10.90
2018-02-09T00:28:10.957Z,10.03
2018-02-09T00:30:38.699Z,11.57
2018-02-09T00:33:06.492Z,10.00
2018-02-09T00:35:34.267Z,10.40
2018-02-09T00:38:02.021Z,6.90
2018-02-09T00:40:29.910Z,11.07
2018-02-09T00:42:57.688Z,8.40
2018-02-09T00:45:25.488Z,10.83
2018-02-09T00:47:53.282Z,9.33
2018-02-09T00:50:20.998Z,14.80
2018-02-09T00:52:48.774Z,9.90
2018-02-09T00:55:17.332Z,10.90
2018-02-09T00:57:45.065Z,9.30
2018-02-09T01:00:13.277Z,8.80
2018-02-09T01:02:41.088Z,11.60
2018-02-09T01:05:08.806Z,11.77
2018-02-09T01:07:36.532Z,8.70
2018-02-09T01:10:04.393Z,12.63
2018-02-09T01:12:32.112Z,8.33
2018-02-09T01:14:59.897Z,6.00
2018-02-09T01:17:27.764Z,10.60
2018-02-09T01:19:55.546Z,11.33
2018-02-09T01:22:23.327Z,11.83
2018-02-09T01:24:51.051Z,8.20
2018-02-09T01:27:18.776Z,10.10
2018-02-09T01:29:46.511Z,10.47
2018-02-09T01:32:15.045Z,11.43
2018-02-09T01:34:42.764Z,15.57
2018-02-09T01:37:10.482Z,5.80
2018-02-09T01:39:38.199Z,9.23
2018-02-09T01:42:06.678Z,6.23
2018-02-09T01:44:34.401Z,9.20
2018-02-09T01:47:02.289Z,17.90
2018-02-09T01:49:30.020Z,11.77
2018-02-09T01:51:57.748Z,14.83
2018-02-09T01:54:25.543Z,11.20
2018-02-09T01:56:53.279Z,8.67
2018-02-09T01:59:21.060Z,9.50
2018-02-09T02:01:48.779Z,8.30
2018-02-09T02:04:16.565Z,7.87
2018-02-09T02:06:45.065Z,12.17
2018-02-09T02:09:12.835Z,7.00
2018-02-09T02:11:40.630Z,9.73
2018-02-09T02:14:08.424Z,10.43
2018-02-09T02:16:36.182Z,9.93
2018-02-09T02:19:03.942Z,8.17
2018-02-09T02:21:31.669Z,6.60
2018-02-09T02:23:59.454Z,9.60
2018-02-09T02:26:27.185Z,8.80
2018-02-09T02:28:54.960Z,11.90
2018-02-09T02:31:22.727Z,9.10
2018-02-09T02:33:50.573Z,10.50
2018-02-09T02:36:18.355Z,7.63
2018-02-09T02:38:46.907Z,7.47
2018-02-09T02:41:14.706Z,13.07
2018-02-09T02:43:42.487Z,8.60
2018-02-09T02:46:10.260Z,12.10
2018-02-09T02:48:38.079Z,7.00
2018-02-09T02:51:05.805Z,11.00
2018-02-09T02:53:33.595Z,10.77
2018-02-09T02:56:01.401Z,7.63
2018-02-09T02:58:29.953Z,7.90
2018-02-09T03:00:57.745Z,11.10
2018-02-09T03:03:25.526Z,10.57
2018-02-09T03:05:53.262Z,8.57
2018-02-09T03:08:21.054Z,10.30
2018-02-09T03:10:48.799Z,7.53
2018-02-09T03:13:17.360Z,8.67
2018-02-09T03:15:45.186Z,6.80
2018-02-09T03:18:13.200Z,9.97
2018-02-09T03:20:40.922Z,7.80
2018-02-09T03:23:09.498Z,14.00
2018-02-09T03:25:37.272Z,8.93
2018-02-09T03:28:05.052Z,9.47
2018-02-09T03:30:32.837Z,9.50
2018-02-09T03:33:00.623Z,10.43
2018-02-09T03:35:28.422Z,8.30
2018-02-09T03:37:56.241Z,8.50
2018-02-09T03:40:24.003Z,8.97
2018-02-09T03:42:51.719Z,12.37
2018-02-09T03:45:19.439Z,11.63
2018-02-09T03:47:47.169Z,9.30
2018-02-09T03:50:14.892Z,9.40
2018-02-09T03:52:42.673Z,12.90
2018-02-09T03:55:10.457Z,15.53
2018-02-09T03:57:38.204Z,12.13
2018-02-09T04:00:06.681Z,8.60
2018-02-09T04:02:34.400Z,9.17
2018-02-09T04:05:02.190Z,10.37
2018-02-09T04:07:29.938Z,12.10
2018-02-09T04:09:57.655Z,8.27
2018-02-09T04:12:25.392Z,11.23
2018-02-09T04:14:53.169Z,9.37
2018-02-09T04:17:20.902Z,13.67
2018-02-09T04:19:48.674Z,10.23
2018-02-09T04:22:16.407Z,9.30
2018-02-09T04:24:44.141Z,9.50
2018-02-09T04:27:11.918Z,8.27
2018-02-09T04:29:39.746Z,6.73
2018-02-09T04:32:07.535Z,12.70
2018-02-09T04:34:35.270Z,10.07
2018-02-09T04:37:03.063Z,11.87
2018-02-09T04:39:30.788Z,7.00
2018-02-09T04:41:58.518Z,8.37
2018-02-09T04:44:26.310Z,8.00
2018-02-09T04:46:54.046Z,8.90
2018-02-09T04:49:21.780Z,11.50
2018-02-09T04:51:49.572Z,8.30
2018-02-09T04:54:17.323Z,10.43
2018-02-09T04:56:45.045Z,9.20
2018-02-09T04:59:13.677Z,8.87
2018-02-09T05:01:41.447Z,9.17
2018-02-09T05:04:09.229Z,11.63
2018-02-09T05:06:37.019Z,13.03
2018-02-09T05:09:04.832Z,9.37
2018-02-09T05:11:32.608Z,8.47
2018-02-09T05:14:00.351Z,10.00
2018-02-09T05:16:28.087Z,10.97
2018-02-09T05:18:55.880Z,9.90
2018-02-09T05:21:23.662Z,13.03
2018-02-09T05:23:51.368Z,7.93
2018-02-09T05:26:19.127Z,12.40
2018-02-09T05:28:46.924Z,14.00
2018-02-09T05:31:15.447Z,8.80
2018-02-09T05:33:43.220Z,7.77
2018-02-09T05:36:11.114Z,9.90
2018-02-09T05:38:38.883Z,10.03
2018-02-09T05:41:06.803Z,12.87
2018-02-09T05:43:34.596Z,11.83
2018-02-09T05:46:06.670Z,12.80
2018-02-09T05:48:36.447Z,9.50
2018-02-09T05:51:07.180Z,11.73
2018-02-09T05:53:35.680Z,10.10
2018-02-09T05:56:03.480Z,10.63
2018-02-09T05:58:36.249Z,10.03
2018-02-09T06:01:04.440Z,14.00
2018-02-09T06:03:32.165Z,9.77
2018-02-09T06:06:00.037Z,13.40
2018-02-09T06:08:27.816Z,15.23
2018-02-09T06:10:55.535Z,10.80
2018-02-09T06:13:23.250Z,13.47
2018-02-09T06:15:51.024Z,16.43
2018-02-09T06:18:18.848Z,12.37
2018-02-09T06:20:46.612Z,15.80
2018-02-09T06:23:14.362Z,14.57
2018-02-09T06:25:42.093Z,12.70
2018-02-09T06:28:09.895Z,13.03
2018-02-09T06:30:37.698Z,11.50
2018-02-09T06:33:05.433Z,32.17
2018-02-09T06:35:34.439Z,26.73
2018-02-09T06:38:02.268Z,19.67
2018-02-09T06:40:30.055Z,17.37
2018-02-09T06:42:57.837Z,20.03
2018-02-09T06:45:25.637Z,21.13
2018-02-09T06:47:53.360Z,17.07
2018-02-09T06:50:21.090Z,15.33
2018-02-09T06:52:48.835Z,17.30
2018-02-09T06:55:16.552Z,13.63
2018-02-09T06:57:50.036Z,17.00
2018-02-09T07:00:17.858Z,12.80
2018-02-09T07:02:45.605Z,11.20
2018-02-09T07:05:13.338Z,11.40
2018-02-09T07:07:41.082Z,12.37
2018-02-09T07:10:08.798Z,14.17
2018-02-09T07:12:36.531Z,14.97
2018-02-09T07:15:04.273Z,11.50
2018-02-09T07:17:32.012Z,10.60
2018-02-09T07:19:59.799Z,10.53
2018-02-09T07:22:27.630Z,12.37
2018-02-09T07:24:55.361Z,16.53
2018-02-09T07:27:23.126Z,16.00
2018-02-09T07:29:50.857Z,11.53
2018-02-09T07:32:18.632Z,17.73
2018-02-09T07:34:46.422Z,13.47
2018-02-09T07:37:14.183Z,18.77
2018-02-09T07:39:41.920Z,13.97
2018-02-09T07:42:09.652Z,14.33
2018-02-09T07:44:37.463Z,15.07
2018-02-09T07:47:05.241Z,13.30
2018-02-09T07:49:33.189Z,15.87
2018-02-09T07:52:01.066Z,14.73
2018-02-09T07:54:28.810Z,15.93
2018-02-09T07:56:56.527Z,18.47
2018-02-09T07:59:24.255Z,17.03
2018-02-09T08:01:52.058Z,16.03
2018-02-09T08:04:19.783Z,16.17
2018-02-09T08:06:47.564Z,16.77
2018-02-09T08:09:15.347Z,17.03
2018-02-09T08:11:43.115Z,16.43
2018-02-09T08:14:10.871Z,23.03
2018-02-09T08:16:38.653Z,21.53
2018-02-09T08:19:06.448Z,15.87
2018-02-09T08:21:34.180Z,21.70
2018-02-09T08:24:01.930Z,20.13
2018-02-09T08:26:29.656Z,22.30
2018-02-09T08:28:57.456Z,20.37
2018-02-09T08:31:25.202Z,19.93
2018-02-09T08:33:53.153Z,24.93
2018-02-09T08:36:20.905Z,20.47
2018-02-09T08:38:48.633Z,21.13
2018-02-09T08:41:16.420Z,21.70
2018-02-09T08:43:44.203Z,24.83
2018-02-09T08:46:11.949Z,26.47
2018-02-09T08:48:39.677Z,20.53
2018-02-09T08:51:07.433Z,25.10
2018-02-09T08:53:35.221Z,26.20
2018-02-09T08:56:02.945Z,22.67
2018-02-09T08:58:30.747Z,20.87
2018-02-09T09:00:58.475Z,28.23
2018-02-09T09:03:26.200Z,24.07
2018-02-09T09:05:53.933Z,27.43
2018-02-09T09:08:21.746Z,27.83
2018-02-09T09:10:49.524Z,23.20
2018-02-09T09:13:17.258Z,26.57
2018-02-09T09:15:45.020Z,27.10
2018-02-09T09:18:13.593Z,26.80
2018-02-09T09:20:42.094Z,28.20
2018-02-09T09:23:09.851Z,23.70
2018-02-09T09:25:38.416Z,28.73
2018-02-09T09:28:06.155Z,30.53
2018-02-09T09:30:34.772Z,30.43
2018-02-09T09:33:02.506Z,28.97
2018-02-09T09:35:30.296Z,32.10
2018-02-09T09:37:58.095Z,29.70
2018-02-09T09:40:25.817Z,37.70
2018-02-09T09:42:53.550Z,30.43
2018-02-09T09:45:21.317Z,32.13
2018-02-09T09:47:49.121Z,28.40
2018-02-09T09:50:16.866Z,36.70
2018-02-09T09:52:44.652Z,28.30
2018-02-09T09:55:12.433Z,28.27
2018-02-09T09:57:40.168Z,29.10
2018-02-09T10:00:07.901Z,31.07
2018-02-09T10:02:40.378Z,27.87
2018-02-09T10:05:08.172Z,24.20
2018-02-09T10:07:35.951Z,32.07
2018-02-09T10:10:03.762Z,27.87
2018-02-09T10:12:33.828Z,34.90
2018-02-09T10:15:01.620Z,30.03
2018-02-09T10:17:29.392Z,35.90
2018-02-09T10:19:57.272Z,32.57
2018-02-09T10:22:25.839Z,35.60
2018-02-09T10:24:53.673Z,37.73
2018-02-09T10:27:22.146Z,36.40
2018-02-09T10:29:49.940Z,33.27
2018-02-09T10:32:17.737Z,38.60
2018-02-09T10:34:45.457Z,42.27
2018-02-09T10:37:13.232Z,39.80
2018-02-09T10:39:41.028Z,34.80
2018-02-09T10:42:08.784Z,32.27
2018-02-09T10:44:36.511Z,32.83
2018-02-09T10:47:04.398Z,31.77
2018-02-09T10:49:32.216Z,33.23
2018-02-09T10:52:00.039Z,30.93
2018-02-09T10:54:27.907Z,38.53
2018-02-09T10:56:55.660Z,33.80
2018-02-09T10:59:23.435Z,34.40
2018-02-09T11:01:51.232Z,36.57
2018-02-09T11:04:19.042Z,30.10
2018-02-09T11:06:46.779Z,38.50
2018-02-09T11:09:14.598Z,35.83
2018-02-09T11:11:42.347Z,32.30
2018-02-09T11:14:10.149Z,31.00
2018-02-09T11:16:38.040Z,29.67
2018-02-09T11:19:05.853Z,32.83
2018-02-09T11:21:37.953Z,29.83
2018-02-09T11:24:05.864Z,34.40
2018-02-09T11:26:33.588Z,31.37
2018-02-09T11:29:01.382Z,36.30
2018-02-09T11:31:29.199Z,32.87
2018-02-09T11:33:56.934Z,31.97
2018-02-09T11:36:24.663Z,31.33
2018-02-09T11:38:53.151Z,29.73
2018-02-09T11:41:20.890Z,26.87
2018-02-09T11:43:48.693Z,77.40
2018-02-09T11:46:16.456Z,32.13
2018-02-09T11:48:44.220Z,29.27
2018-02-09T11:51:11.969Z,29.50
2018-02-09T11:53:39.705Z,30.03
2018-02-09T11:56:07.580Z,30.30
2018-02-09T11:58:35.326Z,31.67
2018-02-09T12:01:03.868Z,28.37
2018-02-09T12:03:31.670Z,31.70
2018-02-09T12:05:59.448Z,31.77
2018-02-09T12:08:27.228Z,33.70
2018-02-09T12:10:55.096Z,31.90
2018-02-09T12:13:22.831Z,36.67
2018-02-09T12:15:50.573Z,33.30
2018-02-09T12:18:18.446Z,38.17
2018-02-09T12:20:46.173Z,37.73
2018-02-09T12:23:13.893Z,42.27
2018-02-09T12:25:41.637Z,37.00
2018-02-09T12:28:10.657Z,40.70
2018-02-09T12:30:38.457Z,36.63
2018-02-09T12:33:06.175Z,39.20
2018-02-09T12:35:33.962Z,39.20
2018-02-09T12:38:01.711Z,37.00
2018-02-09T12:40:29.437Z,43.43
2018-02-09T12:42:57.220Z,41.70
2018-02-09T12:45:25.079Z,40.07
2018-02-09T12:47:52.844Z,41.10
2018-02-09T12:50:20.705Z,44.43
2018-02-09T12:52:48.473Z,38.90
2018-02-09T12:55:16.369Z,44.57
2018-02-09T12:57:44.141Z,37.47
2018-02-09T13:00:11.881Z,40.87
2018-02-09T13:02:39.620Z,41.60
2018-02-09T13:05:07.374Z,41.17
2018-02-09T13:07:35.131Z,40.60
2018-02-09T13:10:03.033Z,32.40
2018-02-09T13:12:44.198Z,36.80
2018-02-09T13:15:13.670Z,40.37
2018-02-09T13:17:41.554Z,44.57
2018-02-09T13:20:09.632Z,41.40
2018-02-09T13:22:52.962Z,43.27
2018-02-09T13:25:21.932Z,52.70
2018-02-09T13:27:51.190Z,44.13
2018-02-09T13:30:19.266Z,44.00
2018-02-09T13:32:59.609Z,38.83
2018-02-09T13:35:28.444Z,38.67
2018-02-09T13:37:57.948Z,45.00
2018-02-09T13:40:28.252Z,40.97
2018-02-09T13:42:56.843Z,42.17
2018-02-09T13:45:26.088Z,45.40
2018-02-09T13:47:57.335Z,50.87
2018-02-09T13:50:26.335Z,38.23
2018-02-09T13:52:55.876Z,41.27
2018-02-09T13:55:24.585Z,42.47
2018-02-09T13:57:55.006Z,47.00
2018-02-09T14:00:22.747Z,42.30
2018-02-09T14:02:51.339Z,45.67
2018-02-09T14:05:19.079Z,42.37
2018-02-09T14:07:46.869Z,44.00
2018-02-09T14:10:14.833Z,39.63
2018-02-09T14:12:42.620Z,40.43
2018-02-09T14:15:11.122Z,45.20
2018-02-09T14:17:39.101Z,41.53
2018-02-09T14:20:06.920Z,39.60
2018-02-09T14:22:34.718Z,41.30
2018-02-09T14:25:04.273Z,46.10
2018-02-09T14:27:32.012Z,54.07
2018-02-09T14:29:59.745Z,59.10
2018-02-09T14:32:28.452Z,56.83
2018-02-09T14:34:56.247Z,52.50
2018-02-09T14:37:24.045Z,55.93
2018-02-09T14:39:51.832Z,56.30
2018-02-09T14:42:19.667Z,56.57
2018-02-09T14:44:47.402Z,57.20
2018-02-09T14:47:16.342Z,56.53
2018-02-09T14:49:44.144Z,58.40
2018-02-09T14:52:11.892Z,49.53
2018-02-09T14:54:39.655Z,47.80
2018-02-09T14:57:07.445Z,48.83
2018-02-09T14:59:35.264Z,53.00
2018-02-09T15:02:03.034Z,51.00
2018-02-09T15:04:30.822Z,58.13
2018-02-09T15:06:58.612Z,59.17
2018-02-09T15:09:26.417Z,50.87
2018-02-09T15:11:54.177Z,57.73
2018-02-09T15:14:22.932Z,55.87
2018-02-09T15:16:51.475Z,58.40
2018-02-09T15:19:19.209Z,62.17
2018-02-09T15:21:47.031Z,63.20
2018-02-09T15:24:14.848Z,57.40
2018-02-09T15:26:42.586Z,56.33
2018-02-09T15:29:10.315Z,55.10
2018-02-09T15:31:38.058Z,54.37
2018-02-09T15:34:05.841Z,57.23
2018-02-09T15:36:33.585Z,57.03
2018-02-09T15:39:01.393Z,59.00
2018-02-09T15:41:29.133Z,61.40
2018-02-09T15:43:56.941Z,58.37
2018-02-09T15:46:25.575Z,63.57
2018-02-09T15:48:53.297Z,58.37
2018-02-09T15:51:21.731Z,62.70
2018-02-09T15:53:49.669Z,69.13
2018-02-09T15:56:20.312Z,59.93
2018-02-09T15:58:51.936Z,63.37
2018-02-09T16:01:24.438Z,66.73
2018-02-09T16:03:54.955Z,64.23
2018-02-09T16:06:24.834Z,58.63
2018-02-09T16:08:56.698Z,66.23
2018-02-09T16:11:27.473Z,59.67
2018-02-09T16:13:57.174Z,64.40
2018-02-09T16:16:28.274Z,61.90
2018-02-09T16:18:59.068Z,63.00
2018-02-09T16:21:29.110Z,69.23
2018-02-09T16:24:02.203Z,60.47
2018-02-09T16:26:31.145Z,68.83
2018-02-09T16:29:01.244Z,60.93
2018-02-09T16:31:29.181Z,62.20
2018-02-09T16:33:59.051Z,76.20
2018-02-09T16:36:28.778Z,68.43
2018-02-09T16:38:59.149Z,72.70
2018-02-09T16:41:29.866Z,65.70
2018-02-09T16:43:58.134Z,68.50
2018-02-09T16:46:27.215Z,70.33
2018-02-09T16:48:54.926Z,65.80
2018-02-09T16:51:22.671Z,71.83
2018-02-09T16:53:50.494Z,71.40
2018-02-09T16:56:18.376Z,64.43
2018-02-09T16:58:46.141Z,69.93
2018-02-09T17:01:13.947Z,68.30
2018-02-09T17:03:42.881Z,77.70
2018-02-09T17:06:13.092Z,66.80
2018-02-09T17:08:41.125Z,70.70
2018-02-09T17:11:08.939Z,76.50
2018-02-09T17:13:36.712Z,79.60
2018-02-09T17:16:04.595Z,69.70
2018-02-09T17:18:33.306Z,72.93
2018-02-09T17:21:01.046Z,79.83
2018-02-09T17:23:28.839Z,80.97
2018-02-09T17:25:56.953Z,78.87
2018-02-09T17:28:25.976Z,83.13
2018-02-09T17:30:53.720Z,79.90
2018-02-09T17:33:35.270Z,82.27
2018-02-09T17:36:03.948Z,79.53
2018-02-09T17:38:31.928Z,85.03
2018-02-09T17:41:00.411Z,83.40
2018-02-09T17:43:28.835Z,87.37
2018-02-09T17:45:56.608Z,83.13
2018-02-09T17:48:24.566Z,86.17
2018-02-09T17:50:54.349Z,79.27
2018-02-09T17:53:22.169Z,83.10
2018-02-09T17:55:49.891Z,82.90
2018-02-09T17:58:17.757Z,82.80
2018-02-09T18:00:45.547Z,82.80
2018-02-09T18:03:13.304Z,83.80
2018-02-09T18:05:42.924Z,96.20
2018-02-09T18:08:15.226Z,91.80
2018-02-09T18:10:43.626Z,90.30
2018-02-09T18:13:11.491Z,91.07
2018-02-09T18:15:40.236Z,83.80
2018-02-09T18:18:09.403Z,80.93
2018-02-09T18:23:21.008Z,88.20
2018-02-09T18:25:48.894Z,83.20
2018-02-09T18:28:17.650Z,105.80
2018-02-09T18:30:45.522Z,81.10
2018-02-09T18:33:22.357Z,87.63
2018-02-09T18:35:50.144Z,81.73
2018-02-09T18:38:21.041Z,82.83
2018-02-09T18:40:51.878Z,85.00
2018-02-09T18:43:21.990Z,81.57
2018-02-09T18:45:50.032Z,91.63
2018-02-09T18:48:18.038Z,82.17
2018-02-09T18:50:45.875Z,89.80
2018-02-09T18:53:13.805Z,86.53
2018-02-09T18:55:41.988Z,85.70
2018-02-09T18:58:15.011Z,83.40
2018-02-09T19:00:43.165Z,84.07
2018-02-09T19:03:16.769Z,83.37
2018-02-09T19:05:44.582Z,90.47
2018-02-09T19:08:12.662Z,87.93
2018-02-09T19:10:41.295Z,80.33
2018-02-09T19:13:21.731Z,81.57
2018-02-09T19:15:54.986Z,89.83
2018-02-09T19:21:08.989Z,87.87
2018-02-09T19:23:36.770Z,90.20
2018-02-09T19:26:04.505Z,85.00
2018-02-09T19:28:32.327Z,95.07
2018-02-09T19:31:00.084Z,99.57
2018-02-09T19:33:27.876Z,94.20
2018-02-09T19:35:55.668Z,93.77
2018-02-09T19:38:26.113Z,85.93
2018-02-09T19:40:53.930Z,92.87
2018-02-09T19:43:21.712Z,89.33
2018-02-09T19:45:49.536Z,91.80
2018-02-09T19:48:17.270Z,89.27
2018-02-09T19:50:45.062Z,89.00
2018-02-09T19:53:13.046Z,85.17
2018-02-09T19:55:40.784Z,88.87
2018-02-09T19:58:09.398Z,85.20
2018-02-09T20:00:38.695Z,95.63
2018-02-09T20:03:08.688Z,91.30
2018-02-09T20:05:37.711Z,91.30
2018-02-09T20:08:07.095Z,95.87
2018-02-09T20:10:35.098Z,91.67
2018-02-09T20:13:03.019Z,90.60
2018-02-09T20:15:31.495Z,93.70
2018-02-09T20:18:00.787Z,95.80
2018-02-09T20:20:30.706Z,85.63
2018-02-09T20:22:58.599Z,90.20
2018-02-09T20:25:26.741Z,89.07
2018-02-09T20:27:55.127Z,87.67
2018-02-09T20:30:24.719Z,90.67
2018-02-09T20:32:52.512Z,95.53
2018-02-09T20:35:22.079Z,83.93
2018-02-09T20:37:52.183Z,97.23
2018-02-09T20:40:21.706Z,85.40
2018-02-09T20:42:50.313Z,83.03
2018-02-09T20:45:18.486Z,86.57
2018-02-09T20:47:46.354Z,83.97
2018-02-09T20:50:17.651Z,92.53
2018-02-09T20:52:45.525Z,91.60
2018-02-09T20:55:14.984Z,86.23
2018-02-09T20:57:42.987Z,81.03
2018-02-09T21:00:13.813Z,86.80
2018-02-09T21:02:42.334Z,93.80
2018-02-09T21:05:12.461Z,88.20
2018-02-09T21:07:40.257Z,94.13
2018-02-09T21:10:08.010Z,90.73
2018-02-09T21:12:35.938Z,85.50
2018-02-09T21:15:06.615Z,87.30
2018-02-09T21:17:34.375Z,108.73
2018-02-09T21:20:02.918Z,96.53
2018-02-09T21:22:30.782Z,94.37
2018-02-09T21:24:58.529Z,82.87
2018-02-09T21:27:26.322Z,91.47
2018-02-09T21:29:54.120Z,88.90
2018-02-09T21:32:21.836Z,91.40
2018-02-09T21:34:50.368Z,87.67
2018-02-09T21:37:18.893Z,85.40
2018-02-09T21:39:46.667Z,86.67
2018-02-09T21:42:14.473Z,86.13
2018-02-09T21:44:42.264Z,84.90
2018-02-09T21:47:10.034Z,92.17
2018-02-09T21:49:37.763Z,88.80
2018-02-09T21:52:05.644Z,89.03
2018-02-09T21:54:33.372Z,88.27
2018-02-09T21:57:01.949Z,87.97
2018-02-09T21:59:29.760Z,90.93
2018-02-09T22:01:57.561Z,108.57
2018-02-09T22:04:26.088Z,86.43
2018-02-09T22:06:53.901Z,89.97
2018-02-09T22:09:21.659Z,94.10
2018-02-09T22:11:49.469Z,91.90
2018-02-09T22:14:17.272Z,94.50
2018-02-09T22:16:45.027Z,92.77
2018-02-09T22:19:12.817Z,86.80
2018-02-09T22:21:40.552Z,89.23
2018-02-09T22:24:08.275Z,99.50
2018-02-09T22:26:36.006Z,86.60
2018-02-09T22:29:03.811Z,89.10
2018-02-09T22:31:31.614Z,90.70
2018-02-09T22:33:59.399Z,87.60
2018-02-09T22:36:27.125Z,83.03
2018-02-09T22:38:54.876Z,81.10
2018-02-09T22:41:22.621Z,85.90
2018-02-09T22:43:50.411Z,82.00
2018-02-09T22:46:18.237Z,88.20
2018-02-09T22:48:46.011Z,65.87
2018-02-09T22:51:13.804Z,63.23
2018-02-09T22:53:41.527Z,71.43
2018-02-09T22:56:09.304Z,67.07
2018-02-09T22:58:37.041Z,56.67
2018-02-09T23:01:04.784Z,55.27
2018-02-09T23:03:32.589Z,53.03
2018-02-09T23:06:00.337Z,53.93
2018-02-09T23:08:28.063Z,53.63
2018-02-09T23:10:55.853Z,56.87
2018-02-09T23:13:25.069Z,59.50
2018-02-09T23:15:52.796Z,59.60
2018-02-09T23:18:21.364Z,58.37
2018-02-09T23:20:49.092Z,59.23
2018-02-09T23:23:16.829Z,56.60
2018-02-09T23:25:44.551Z,52.03
2018-02-09T23:28:12.310Z,60.47
2018-02-09T23:30:40.059Z,50.80
2018-02-09T23:33:07.869Z,53.07
2018-02-09T23:35:35.669Z,46.83
2018-02-09T23:38:03.489Z,49.83
2018-02-09T23:40:31.229Z,46.17
2018-02-09T23:42:59.040Z,44.53
2018-02-09T23:45:26.760Z,44.00
2018-02-09T23:47:54.601Z,45.97
2018-02-09T23:50:22.403Z,40.30
2018-02-09T23:52:50.130Z,37.83
2018-02-09T23:55:17.907Z,34.40
2018-02-09T23:57:45.686Z,33.30
